Calumet, Iowa
Current Conditions -  °F | °C
As of 9:55 PM on Saturday 20 Dec 2014 (Local Time) from KCKP Reporting Station
Haze Haze  
Wind Chill: 23°   Ceiling: 400
Heat Index: 32°   Visibility: 5mi
Dew Point: 32°   Wind: 10mph
Humidity: 100%   Direction: 180°S
Pressure: 30.02"   Gusts: NA
Location:  42.95°N, 95.55°W
Report Text: KCKP 210355Z AUTO 18009KT 5SM BR OVC004 00/00 A3002 RMK AO2 T10011001
Loading
Personal Weather Stations






























Interactive Weather Map New forecast layout! Learn more

10-Day Weather Forecast

Advertisements
Track Severe Weather on mobile